sensor_id;sensor_type;location;lat;lon;timestamp;pressure;altitude;pressure_sealevel;temperature;humidity
72414;BME280;60995;52.154;4.498;2023-03-25T00:00:47;99997.44;;;11.01;69.22
72414;BME280;60995;52.154;4.498;2023-03-25T00:03:03;99994.09;;;11.07;68.65
72414;BME280;60995;52.154;4.498;2023-03-25T00:05:20;99990.00;;;11.03;68.92
72414;BME280;60995;52.154;4.498;2023-03-25T00:07:37;99987.63;;;11.00;69.04
72414;BME280;60995;52.154;4.498;2023-03-25T00:09:53;99993.72;;;11.02;68.60
72414;BME280;60995;52.154;4.498;2023-03-25T00:12:10;99987.38;;;11.20;68.35
72414;BME280;60995;52.154;4.498;2023-03-25T00:14:26;99990.38;;;11.08;67.77
72414;BME280;60995;52.154;4.498;2023-03-25T00:16:43;99981.38;;;11.08;68.01
72414;BME280;60995;52.154;4.498;2023-03-25T00:19:03;99997.44;;;11.01;68.17
72414;BME280;60995;52.154;4.498;2023-03-25T00:21:19;99995.25;;;10.97;68.29
72414;BME280;60995;52.154;4.498;2023-03-25T00:23:37;100004.59;;;11.02;68.01
72414;BME280;60995;52.154;4.498;2023-03-25T00:25:54;100001.06;;;11.10;68.38
72414;BME280;60995;52.154;4.498;2023-03-25T00:28:15;99997.44;;;11.01;68.37
72414;BME280;60995;52.154;4.498;2023-03-25T00:30:31;99999.16;;;11.02;68.37
72414;BME280;60995;52.154;4.498;2023-03-25T00:32:48;100000.59;;;11.15;67.99
72414;BME280;60995;52.154;4.498;2023-03-25T00:35:12;100010.97;;;10.93;68.18
72414;BME280;60995;52.154;4.498;2023-03-25T00:37:34;99999.13;;;10.94;68.31
72414;BME280;60995;52.154;4.498;2023-03-25T00:39:50;100002.47;;;10.88;68.87
72414;BME280;60995;52.154;4.498;2023-03-25T00:42:06;99993.94;;;11.09;68.62
72414;BME280;60995;52.154;4.498;2023-03-25T00:44:26;99975.56;;;11.03;68.71
72414;BME280;60995;52.154;4.498;2023-03-25T00:46:42;99995.53;;;10.93;69.42
72414;BME280;60995;52.154;4.498;2023-03-25T00:48:59;99992.91;;;11.02;69.36
72414;BME280;60995;52.154;4.498;2023-03-25T00:51:16;99982.88;;;11.02;69.13
72414;BME280;60995;52.154;4.498;2023-03-25T00:53:36;99983.00;;;10.92;69.51
72414;BME280;60995;52.154;4.498;2023-03-25T00:55:56;99978.81;;;11.06;69.30
72414;BME280;60995;52.154;4.498;2023-03-25T00:58:13;99979.88;;;11.14;69.33
72414;BME280;60995;52.154;4.498;2023-03-25T01:00:29;99984.91;;;11.00;70.08
72414;BME280;60995;52.154;4.498;2023-03-25T01:02:48;99978.88;;;11.15;69.78
72414;BME280;60995;52.154;4.498;2023-03-25T01:05:09;99974.75;;;11.11;70.48
72414;BME280;60995;52.154;4.498;2023-03-25T01:07:26;99973.72;;;11.03;70.55
72414;BME280;60995;52.154;4.498;2023-03-25T01:09:45;99981.22;;;11.09;70.29
72414;BME280;60995;52.154;4.498;2023-03-25T01:12:02;99988.94;;;10.96;71.01
72414;BME280;60995;52.154;4.498;2023-03-25T01:14:20;99972.09;;;11.19;70.26
72414;BME280;60995;52.154;4.498;2023-03-25T01:16:39;99978.06;;;11.22;70.02
72414;BME280;60995;52.154;4.498;2023-03-25T01:18:56;99976.59;;;11.02;70.25
72414;BME280;60995;52.154;4.498;2023-03-25T01:21:12;99980.13;;;10.94;70.50
72414;BME280;60995;52.154;4.498;2023-03-25T01:23:29;99988.69;;;11.16;70.05
72414;BME280;60995;52.154;4.498;2023-03-25T01:25:45;99978.78;;;10.98;70.62
72414;BME280;60995;52.154;4.498;2023-03-25T01:28:02;99974.09;;;11.08;70.28
72414;BME280;60995;52.154;4.498;2023-03-25T01:30:20;99966.47;;;11.12;70.34
72414;BME280;60995;52.154;4.498;2023-03-25T01:32:36;99966.63;;;11.11;70.62
72414;BME280;60995;52.154;4.498;2023-03-25T01:34:52;99969.69;;;11.16;70.46
72414;BME280;60995;52.154;4.498;2023-03-25T01:37:09;99973.25;;;10.82;71.22
72414;BME280;60995;52.154;4.498;2023-03-25T01:39:25;99984.19;;;10.90;71.51
72414;BME280;60995;52.154;4.498;2023-03-25T01:41:42;99974.69;;;10.94;71.21
72414;BME280;60995;52.154;4.498;2023-03-25T01:46:25;99971.28;;;10.92;71.16
72414;BME280;60995;52.154;4.498;2023-03-25T01:48:43;99958.50;;;10.84;71.37
72414;BME280;60995;52.154;4.498;2023-03-25T01:51:11;99963.50;;;10.97;71.26
72414;BME280;60995;52.154;4.498;2023-03-25T01:53:37;99974.16;;;10.90;71.72
72414;BME280;60995;52.154;4.498;2023-03-25T01:55:55;99963.53;;;11.05;70.93
72414;BME280;60995;52.154;4.498;2023-03-25T01:58:14;99964.84;;;10.93;71.72
72414;BME280;60995;52.154;4.498;2023-03-25T02:00:34;99953.97;;;10.85;71.47
72414;BME280;60995;52.154;4.498;2023-03-25T02:02:50;99950.81;;;10.98;71.09
72414;BME280;60995;52.154;4.498;2023-03-25T02:05:27;99964.81;;;10.85;71.37
72414;BME280;60995;52.154;4.498;2023-03-25T02:07:53;99954.94;;;10.75;71.47
72414;BME280;60995;52.154;4.498;2023-03-25T02:10:10;99956.50;;;10.86;71.53
72414;BME280;60995;52.154;4.498;2023-03-25T02:12:27;99960.47;;;11.00;70.72
72414;BME280;60995;52.154;4.498;2023-03-25T02:14:44;99957.69;;;10.84;71.15
72414;BME280;60995;52.154;4.498;2023-03-25T02:17:07;99956.81;;;10.83;71.38
72414;BME280;60995;52.154;4.498;2023-03-25T02:23:29;99947.19;;;10.89;71.74
72414;BME280;60995;52.154;4.498;2023-03-25T02:26:07;99951.28;;;10.93;71.73
72414;BME280;60995;52.154;4.498;2023-03-25T02:28:38;99950.53;;;10.83;72.23
72414;BME280;60995;52.154;4.498;2023-03-25T02:31:36;99942.00;;;11.04;71.80
72414;BME280;60995;52.154;4.498;2023-03-25T02:42:59;99947.63;;;11.11;72.37
72414;BME280;60995;52.154;4.498;2023-03-25T02:45:31;99943.56;;;10.80;73.26
72414;BME280;60995;52.154;4.498;2023-03-25T02:47:59;99944.28;;;10.82;72.88
72414;BME280;60995;52.154;4.498;2023-03-25T02:50:24;99938.78;;;11.08;72.29
72414;BME280;60995;52.154;4.498;2023-03-25T02:52:49;99930.69;;;11.25;71.69
72414;BME280;60995;52.154;4.498;2023-03-25T02:55:09;99924.25;;;11.18;71.54
72414;BME280;60995;52.154;4.498;2023-03-25T02:57:32;99925.88;;;11.11;72.05
72414;BME280;60995;52.154;4.498;2023-03-25T02:59:51;99912.19;;;11.12;71.90
72414;BME280;60995;52.154;4.498;2023-03-25T03:02:09;99922.50;;;11.08;72.25
72414;BME280;60995;52.154;4.498;2023-03-25T03:04:26;99921.88;;;11.15;71.87
72414;BME280;60995;52.154;4.498;2023-03-25T03:06:42;99921.97;;;11.05;71.92
72414;BME280;60995;52.154;4.498;2023-03-25T03:18:31;99919.59;;;11.02;72.34
72414;BME280;60995;52.154;4.498;2023-03-25T03:20:38;99911.66;;;11.08;71.95
72414;BME280;60995;52.154;4.498;2023-03-25T03:23:23;99909.84;;;10.83;72.61
72414;BME280;60995;52.154;4.498;2023-03-25T03:25:52;99929.72;;;10.91;72.50
72414;BME280;60995;52.154;4.498;2023-03-25T03:28:18;99908.44;;;11.13;72.05
72414;BME280;60995;52.154;4.498;2023-03-25T03:30:54;99921.59;;;10.91;72.37
72414;BME280;60995;52.154;4.498;2023-03-25T03:36:11;99919.78;;;10.74;73.80
72414;BME280;60995;52.154;4.498;2023-03-25T03:38:37;99908.94;;;10.74;72.90
72414;BME280;60995;52.154;4.498;2023-03-25T03:41:08;99916.56;;;10.70;74.09
72414;BME280;60995;52.154;4.498;2023-03-25T03:43:41;99906.34;;;10.64;74.78
72414;BME280;60995;52.154;4.498;2023-03-25T03:46:26;99913.84;;;10.70;74.53
72414;BME280;60995;52.154;4.498;2023-03-25T03:48:51;99909.13;;;10.81;73.57
72414;BME280;60995;52.154;4.498;2023-03-25T03:51:19;99914.53;;;10.72;74.30
72414;BME280;60995;52.154;4.498;2023-03-25T03:53:51;99926.09;;;10.74;73.90
72414;BME280;60995;52.154;4.498;2023-03-25T03:56:17;99930.72;;;10.82;73.77
72414;BME280;60995;52.154;4.498;2023-03-25T03:58:41;99920.66;;;10.74;72.47
72414;BME280;60995;52.154;4.498;2023-03-25T04:01:12;99933.91;;;10.86;72.25
72414;BME280;60995;52.154;4.498;2023-03-25T04:03:54;99920.22;;;10.61;73.52
72414;BME280;60995;52.154;4.498;2023-03-25T04:09:02;99908.28;;;10.46;72.96
72414;BME280;60995;52.154;4.498;2023-03-25T04:11:31;99919.50;;;10.51;73.28
72414;BME280;60995;52.154;4.498;2023-03-25T04:13:57;99916.59;;;10.26;73.80
72414;BME280;60995;52.154;4.498;2023-03-25T04:16:16;99906.22;;;10.39;73.23
72414;BME280;60995;52.154;4.498;2023-03-25T04:18:32;99923.81;;;10.35;72.87
72414;BME280;60995;52.154;4.498;2023-03-25T04:20:50;99928.19;;;10.36;73.12
72414;BME280;60995;52.154;4.498;2023-03-25T04:23:06;99928.13;;;10.28;73.83
72414;BME280;60995;52.154;4.498;2023-03-25T04:25:24;99918.94;;;10.21;73.94
72414;BME280;60995;52.154;4.498;2023-03-25T04:27:41;99933.78;;;10.17;73.93
72414;BME280;60995;52.154;4.498;2023-03-25T04:30:07;99940.75;;;10.19;73.95
72414;BME280;60995;52.154;4.498;2023-03-25T04:32:24;99944.38;;;10.28;74.43
72414;BME280;60995;52.154;4.498;2023-03-25T04:34:42;99936.88;;;10.22;74.65
72414;BME280;60995;52.154;4.498;2023-03-25T04:36:59;99948.81;;;10.29;74.09
72414;BME280;60995;52.154;4.498;2023-03-25T04:39:17;99947.97;;;10.29;74.05
72414;BME280;60995;52.154;4.498;2023-03-25T04:41:37;99932.53;;;10.29;74.29
72414;BME280;60995;52.154;4.498;2023-03-25T04:43:54;99946.09;;;10.29;73.72
72414;BME280;60995;52.154;4.498;2023-03-25T04:46:13;99953.63;;;10.35;73.62
72414;BME280;60995;52.154;4.498;2023-03-25T04:48:33;99954.94;;;10.13;72.98
72414;BME280;60995;52.154;4.498;2023-03-25T04:50:57;99952.22;;;10.31;72.89
72414;BME280;60995;52.154;4.498;2023-03-25T04:53:14;99949.19;;;10.34;73.25
72414;BME280;60995;52.154;4.498;2023-03-25T04:55:30;99939.03;;;10.36;73.32
72414;BME280;60995;52.154;4.498;2023-03-25T04:57:50;99931.41;;;10.14;72.79
72414;BME280;60995;52.154;4.498;2023-03-25T05:00:09;99937.56;;;10.24;72.25
72414;BME280;60995;52.154;4.498;2023-03-25T05:02:26;99944.34;;;10.20;72.86
72414;BME280;60995;52.154;4.498;2023-03-25T05:04:42;99953.47;;;10.19;73.14
72414;BME280;60995;52.154;4.498;2023-03-25T05:07:02;99943.34;;;10.03;72.67
72414;BME280;60995;52.154;4.498;2023-03-25T05:09:19;99942.47;;;10.02;71.84
72414;BME280;60995;52.154;4.498;2023-03-25T05:11:39;99955.78;;;10.14;72.00
72414;BME280;60995;52.154;4.498;2023-03-25T05:13:56;99952.50;;;10.28;71.96
72414;BME280;60995;52.154;4.498;2023-03-25T05:16:12;99959.72;;;10.19;71.69
72414;BME280;60995;52.154;4.498;2023-03-25T05:18:29;99959.97;;;10.26;71.00
72414;BME280;60995;52.154;4.498;2023-03-25T05:20:46;99957.03;;;10.37;70.84
72414;BME280;60995;52.154;4.498;2023-03-25T05:23:06;99966.25;;;10.45;71.55
72414;BME280;60995;52.154;4.498;2023-03-25T05:25:27;99958.84;;;10.55;72.58
72414;BME280;60995;52.154;4.498;2023-03-25T05:27:43;99959.44;;;10.40;72.30
72414;BME280;60995;52.154;4.498;2023-03-25T05:30:01;99957.94;;;10.28;72.64
72414;BME280;60995;52.154;4.498;2023-03-25T05:32:19;99953.47;;;10.19;73.07
72414;BME280;60995;52.154;4.498;2023-03-25T05:34:36;99969.25;;;10.41;73.63
72414;BME280;60995;52.154;4.498;2023-03-25T05:36:53;99970.16;;;10.32;73.84
72414;BME280;60995;52.154;4.498;2023-03-25T05:39:09;99968.16;;;10.34;73.72
72414;BME280;60995;52.154;4.498;2023-03-25T05:41:27;99969.72;;;10.19;74.79
72414;BME280;60995;52.154;4.498;2023-03-25T05:43:53;99968.88;;;10.18;75.26
72414;BME280;60995;52.154;4.498;2023-03-25T05:46:10;99971.22;;;10.13;76.41
72414;BME280;60995;52.154;4.498;2023-03-25T05:48:26;99971.59;;;10.00;76.76
72414;BME280;60995;52.154;4.498;2023-03-25T05:50:47;99974.16;;;10.02;76.57
72414;BME280;60995;52.154;4.498;2023-03-25T05:53:03;99986.16;;;9.99;76.98
72414;BME280;60995;52.154;4.498;2023-03-25T05:55:21;99988.25;;;9.87;78.30
72414;BME280;60995;52.154;4.498;2023-03-25T05:57:38;99983.19;;;9.74;77.87
72414;BME280;60995;52.154;4.498;2023-03-25T05:59:54;99977.84;;;9.83;77.97
72414;BME280;60995;52.154;4.498;2023-03-25T06:02:15;99989.34;;;9.76;78.03
72414;BME280;60995;52.154;4.498;2023-03-25T06:04:35;99985.59;;;9.77;77.99
72414;BME280;60995;52.154;4.498;2023-03-25T06:06:56;99988.09;;;9.89;78.04
72414;BME280;60995;52.154;4.498;2023-03-25T06:09:12;99993.66;;;9.87;77.48
72414;BME280;60995;52.154;4.498;2023-03-25T06:11:29;99988.84;;;9.81;77.41
72414;BME280;60995;52.154;4.498;2023-03-25T06:13:46;99985.06;;;9.92;76.85
72414;BME280;60995;52.154;4.498;2023-03-25T06:16:07;99990.19;;;9.95;77.49
72414;BME280;60995;52.154;4.498;2023-03-25T06:18:24;99993.84;;;10.04;76.48
72414;BME280;60995;52.154;4.498;2023-03-25T06:20:41;99990.31;;;10.12;75.78
72414;BME280;60995;52.154;4.498;2023-03-25T06:22:57;100006.47;;;10.13;75.31
72414;BME280;60995;52.154;4.498;2023-03-25T06:25:16;99996.94;;;10.09;75.41
72414;BME280;60995;52.154;4.498;2023-03-25T06:27:35;99992.75;;;10.15;74.99
72414;BME280;60995;52.154;4.498;2023-03-25T06:29:55;99989.56;;;10.01;74.46
72414;BME280;60995;52.154;4.498;2023-03-25T06:32:13;99993.13;;;10.20;73.94
72414;BME280;60995;52.154;4.498;2023-03-25T06:34:30;100002.97;;;10.21;74.25
72414;BME280;60995;52.154;4.498;2023-03-25T06:36:49;100002.47;;;10.25;73.99
72414;BME280;60995;52.154;4.498;2023-03-25T06:39:08;100004.41;;;10.33;73.40
72414;BME280;60995;52.154;4.498;2023-03-25T06:41:25;99991.41;;;10.19;73.15
72414;BME280;60995;52.154;4.498;2023-03-25T06:43:41;100008.13;;;10.32;73.16
72414;BME280;60995;52.154;4.498;2023-03-25T06:45:57;100020.88;;;10.50;73.60
72414;BME280;60995;52.154;4.498;2023-03-25T06:48:14;100015.66;;;10.56;72.34
72414;BME280;60995;52.154;4.498;2023-03-25T06:50:31;100024.91;;;10.46;71.87
72414;BME280;60995;52.154;4.498;2023-03-25T06:52:47;100019.16;;;10.49;72.18
72414;BME280;60995;52.154;4.498;2023-03-25T06:55:04;100014.72;;;10.66;71.46
72414;BME280;60995;52.154;4.498;2023-03-25T06:57:20;100016.25;;;10.68;70.75
72414;BME280;60995;52.154;4.498;2023-03-25T06:59:37;100020.66;;;10.69;70.44
72414;BME280;60995;52.154;4.498;2023-03-25T07:01:53;100020.88;;;10.76;70.24
72414;BME280;60995;52.154;4.498;2023-03-25T07:04:09;100010.25;;;10.38;70.70
72414;BME280;60995;52.154;4.498;2023-03-25T07:06:26;100021.00;;;10.30;70.76
72414;BME280;60995;52.154;4.498;2023-03-25T07:08:42;100016.78;;;10.46;70.26
72414;BME280;60995;52.154;4.498;2023-03-25T07:11:04;100007.22;;;10.41;70.19
72414;BME280;60995;52.154;4.498;2023-03-25T07:13:22;100014.50;;;10.59;70.41
72414;BME280;60995;52.154;4.498;2023-03-25T07:15:38;100020.72;;;10.78;69.03
72414;BME280;60995;52.154;4.498;2023-03-25T07:17:55;100023.84;;;10.91;69.06
72414;BME280;60995;52.154;4.498;2023-03-25T07:20:11;100006.91;;;10.89;68.83
72414;BME280;60995;52.154;4.498;2023-03-25T07:22:27;100009.81;;;10.96;68.40
72414;BME280;60995;52.154;4.498;2023-03-25T07:24:47;100016.28;;;10.76;68.86
72414;BME280;60995;52.154;4.498;2023-03-25T07:27:04;100018.53;;;11.07;68.36
72414;BME280;60995;52.154;4.498;2023-03-25T07:29:20;100032.44;;;11.04;67.81
72414;BME280;60995;52.154;4.498;2023-03-25T07:31:36;100014.81;;;11.08;67.55
72414;BME280;60995;52.154;4.498;2023-03-25T07:33:54;100026.59;;;11.25;67.27
72414;BME280;60995;52.154;4.498;2023-03-25T07:36:12;100019.63;;;11.23;66.75
72414;BME280;60995;52.154;4.498;2023-03-25T07:38:29;100019.38;;;11.08;67.10
72414;BME280;60995;52.154;4.498;2023-03-25T07:40:45;100001.09;;;10.84;67.76
72414;BME280;60995;52.154;4.498;2023-03-25T07:43:01;100041.84;;;10.92;67.42
72414;BME280;60995;52.154;4.498;2023-03-25T07:45:18;100028.13;;;11.20;66.94
72414;BME280;60995;52.154;4.498;2023-03-25T07:47:35;100021.38;;;11.32;66.37
72414;BME280;60995;52.154;4.498;2023-03-25T07:49:51;100035.84;;;11.41;66.07
72414;BME280;60995;52.154;4.498;2023-03-25T07:52:07;100030.00;;;11.70;65.56
72414;BME280;60995;52.154;4.498;2023-03-25T07:54:23;100037.97;;;12.15;63.98
72414;BME280;60995;52.154;4.498;2023-03-25T07:56:40;100018.34;;;11.86;64.29
72414;BME280;60995;52.154;4.498;2023-03-25T07:58:56;100049.63;;;11.48;65.54
72414;BME280;60995;52.154;4.498;2023-03-25T08:01:12;100050.53;;;11.56;65.25
72414;BME280;60995;52.154;4.498;2023-03-25T08:03:28;100043.22;;;11.57;65.38
72414;BME280;60995;52.154;4.498;2023-03-25T08:05:46;100026.88;;;11.49;65.27
72414;BME280;60995;52.154;4.498;2023-03-25T08:08:04;100048.53;;;11.75;64.89
72414;BME280;60995;52.154;4.498;2023-03-25T08:10:21;100059.63;;;11.90;64.12
72414;BME280;60995;52.154;4.498;2023-03-25T08:12:37;100043.22;;;12.00;64.40
72414;BME280;60995;52.154;4.498;2023-03-25T08:14:53;100040.94;;;11.87;64.54
72414;BME280;60995;52.154;4.498;2023-03-25T08:17:10;100055.72;;;11.92;64.02
72414;BME280;60995;52.154;4.498;2023-03-25T08:19:26;100038.25;;;11.95;63.65
72414;BME280;60995;52.154;4.498;2023-03-25T08:21:42;100055.81;;;11.66;64.79
72414;BME280;60995;52.154;4.498;2023-03-25T08:23:58;100037.72;;;11.91;64.32
72414;BME280;60995;52.154;4.498;2023-03-25T08:26:19;100050.19;;;12.02;63.67
72414;BME280;60995;52.154;4.498;2023-03-25T08:28:35;100046.47;;;12.12;63.08
72414;BME280;60995;52.154;4.498;2023-03-25T08:30:52;100046.84;;;12.33;62.96
72414;BME280;60995;52.154;4.498;2023-03-25T08:33:09;100039.53;;;12.58;62.28
72414;BME280;60995;52.154;4.498;2023-03-25T08:35:26;100052.94;;;12.35;62.60
72414;BME280;60995;52.154;4.498;2023-03-25T08:37:42;100059.75;;;12.23;62.90
72414;BME280;60995;52.154;4.498;2023-03-25T08:39:58;100064.13;;;12.16;63.12
72414;BME280;60995;52.154;4.498;2023-03-25T08:42:15;100060.59;;;12.15;63.77
72414;BME280;60995;52.154;4.498;2023-03-25T08:44:32;100065.84;;;12.17;63.11
72414;BME280;60995;52.154;4.498;2023-03-25T08:46:48;100069.09;;;12.37;62.65
72414;BME280;60995;52.154;4.498;2023-03-25T08:49:04;100059.56;;;12.33;62.57
72414;BME280;60995;52.154;4.498;2023-03-25T08:51:22;100067.75;;;12.33;62.76
72414;BME280;60995;52.154;4.498;2023-03-25T08:53:38;100058.41;;;12.77;61.58
72414;BME280;60995;52.154;4.498;2023-03-25T08:55:56;100081.91;;;12.78;61.70
72414;BME280;60995;52.154;4.498;2023-03-25T08:58:13;100081.88;;;12.69;61.43
72414;BME280;60995;52.154;4.498;2023-03-25T09:00:30;100081.19;;;12.59;62.38
72414;BME280;60995;52.154;4.498;2023-03-25T09:02:47;100072.38;;;12.82;61.34
72414;BME280;60995;52.154;4.498;2023-03-25T09:05:03;100071.50;;;12.98;60.84
72414;BME280;60995;52.154;4.498;2023-03-25T09:07:20;100084.25;;;13.05;60.40
72414;BME280;60995;52.154;4.498;2023-03-25T09:09:39;100092.59;;;13.04;60.39
72414;BME280;60995;52.154;4.498;2023-03-25T09:11:55;100100.06;;;13.02;60.70
72414;BME280;60995;52.154;4.498;2023-03-25T09:14:12;100086.28;;;12.46;61.77
72414;BME280;60995;52.154;4.498;2023-03-25T09:16:29;100096.84;;;12.73;61.72
72414;BME280;60995;52.154;4.498;2023-03-25T09:18:47;100097.69;;;12.57;62.07
72414;BME280;60995;52.154;4.498;2023-03-25T09:21:03;100106.06;;;12.72;61.99
72414;BME280;60995;52.154;4.498;2023-03-25T09:23:20;100087.94;;;13.29;60.37
72414;BME280;60995;52.154;4.498;2023-03-25T09:25:36;100095.84;;;12.91;60.60
72414;BME280;60995;52.154;4.498;2023-03-25T09:27:53;100091.06;;;13.01;60.85
72414;BME280;60995;52.154;4.498;2023-03-25T09:30:10;100101.94;;;13.10;62.03
72414;BME280;60995;52.154;4.498;2023-03-25T09:32:27;100094.13;;;12.73;62.74
72414;BME280;60995;52.154;4.498;2023-03-25T09:34:44;100106.88;;;12.56;62.96
72414;BME280;60995;52.154;4.498;2023-03-25T09:37:00;100090.22;;;12.60;62.72
72414;BME280;60995;52.154;4.498;2023-03-25T09:39:19;100113.50;;;12.79;61.63
72414;BME280;60995;52.154;4.498;2023-03-25T09:47:25;100111.56;;;14.01;57.63
72414;BME280;60995;52.154;4.498;2023-03-25T09:49:50;100102.28;;;14.74;55.65
72414;BME280;60995;52.154;4.498;2023-03-25T09:52:16;100116.38;;;15.00;53.87
72414;BME280;60995;52.154;4.498;2023-03-25T09:54:37;100121.00;;;15.53;53.26
72414;BME280;60995;52.154;4.498;2023-03-25T09:57:07;100115.44;;;16.06;50.55
72414;BME280;60995;52.154;4.498;2023-03-25T09:59:51;100119.88;;;15.92;51.28
72414;BME280;60995;52.154;4.498;2023-03-25T10:05:17;100126.59;;;14.83;54.41
72414;BME280;60995;52.154;4.498;2023-03-25T10:08:12;100116.84;;;14.03;56.25
72414;BME280;60995;52.154;4.498;2023-03-25T10:13:53;100126.94;;;14.57;55.41
72414;BME280;60995;52.154;4.498;2023-03-25T10:16:45;100122.06;;;14.44;55.20
72414;BME280;60995;52.154;4.498;2023-03-25T10:22:04;100136.47;;;16.06;51.25
72414;BME280;60995;52.154;4.498;2023-03-25T10:27:14;100131.38;;;16.02;49.78
72414;BME280;60995;52.154;4.498;2023-03-25T10:29:40;100142.81;;;15.23;52.93
72414;BME280;60995;52.154;4.498;2023-03-25T10:32:15;100116.34;;;15.24;52.77
72414;BME280;60995;52.154;4.498;2023-03-25T10:34:48;100127.31;;;15.68;52.98
72414;BME280;60995;52.154;4.498;2023-03-25T10:37:10;100141.38;;;15.95;51.16
72414;BME280;60995;52.154;4.498;2023-03-25T10:39:32;100158.31;;;16.35;49.56
72414;BME280;60995;52.154;4.498;2023-03-25T10:41:59;100154.53;;;16.36;50.10
72414;BME280;60995;52.154;4.498;2023-03-25T10:44:26;100161.75;;;16.08;50.97
72414;BME280;60995;52.154;4.498;2023-03-25T10:46:59;100156.56;;;16.13;50.05
72414;BME280;60995;52.154;4.498;2023-03-25T10:49:29;100151.69;;;16.88;49.33
72414;BME280;60995;52.154;4.498;2023-03-25T10:51:50;100151.09;;;17.64;47.19
72414;BME280;60995;52.154;4.498;2023-03-25T10:54:13;100139.19;;;17.50;46.79
72414;BME280;60995;52.154;4.498;2023-03-25T10:56:35;100160.28;;;17.00;48.47
72414;BME280;60995;52.154;4.498;2023-03-25T10:58:56;100155.34;;;16.74;48.73
72414;BME280;60995;52.154;4.498;2023-03-25T11:01:18;100156.28;;;17.02;48.66
72414;BME280;60995;52.154;4.498;2023-03-25T11:03:38;100163.84;;;17.79;46.44
72414;BME280;60995;52.154;4.498;2023-03-25T11:05:56;100179.69;;;15.95;50.55
72414;BME280;60995;52.154;4.498;2023-03-25T11:08:14;100154.16;;;15.50;52.31
72414;BME280;60995;52.154;4.498;2023-03-25T11:10:36;100168.94;;;15.02;53.55
72414;BME280;60995;52.154;4.498;2023-03-25T11:12:54;100159.97;;;14.70;54.51
72414;BME280;60995;52.154;4.498;2023-03-25T11:15:17;100168.34;;;15.15;54.24
72414;BME280;60995;52.154;4.498;2023-03-25T11:20:50;100175.75;;;15.83;51.72
72414;BME280;60995;52.154;4.498;2023-03-25T11:25:55;100174.63;;;15.16;53.59
72414;BME280;60995;52.154;4.498;2023-03-25T11:29:12;100182.50;;;15.34;53.52
72414;BME280;60995;52.154;4.498;2023-03-25T11:31:38;100161.13;;;14.99;53.13
72414;BME280;60995;52.154;4.498;2023-03-25T11:34:16;100175.81;;;15.36;53.20
72414;BME280;60995;52.154;4.498;2023-03-25T11:36:50;100172.97;;;15.98;52.26
72414;BME280;60995;52.154;4.498;2023-03-25T11:41:38;100164.84;;;15.60;52.39
72414;BME280;60995;52.154;4.498;2023-03-25T11:43:54;100180.78;;;15.18;54.01
72414;BME280;60995;52.154;4.498;2023-03-25T11:46:17;100189.72;;;15.12;53.49
72414;BME280;60995;52.154;4.498;2023-03-25T11:48:38;100183.53;;;14.95;54.21
72414;BME280;60995;52.154;4.498;2023-03-25T11:51:00;100185.66;;;15.08;53.74
72414;BME280;60995;52.154;4.498;2023-03-25T11:53:18;100176.50;;;15.38;52.85
72414;BME280;60995;52.154;4.498;2023-03-25T11:55:49;100173.50;;;15.48;52.79
72414;BME280;60995;52.154;4.498;2023-03-25T11:58:14;100181.63;;;16.31;50.73
72414;BME280;60995;52.154;4.498;2023-03-25T12:00:38;100178.25;;;15.31;51.80
72414;BME280;60995;52.154;4.498;2023-03-25T12:05:28;100201.59;;;15.57;52.29
72414;BME280;60995;52.154;4.498;2023-03-25T12:07:48;100187.75;;;16.33;50.91
72414;BME280;60995;52.154;4.498;2023-03-25T12:10:06;100195.84;;;15.52;51.91
72414;BME280;60995;52.154;4.498;2023-03-25T12:15:31;100184.84;;;16.72;49.89
72414;BME280;60995;52.154;4.498;2023-03-25T12:21:03;100180.59;;;15.73;51.50
72414;BME280;60995;52.154;4.498;2023-03-25T12:23:58;100202.00;;;15.54;52.20
72414;BME280;60995;52.154;4.498;2023-03-25T12:26:35;100188.41;;;15.22;52.45
72414;BME280;60995;52.154;4.498;2023-03-25T12:29:05;100201.06;;;15.00;53.43
72414;BME280;60995;52.154;4.498;2023-03-25T12:36:47;100191.00;;;15.39;53.11
72414;BME280;60995;52.154;4.498;2023-03-25T12:45:16;100196.03;;;15.12;54.43
72414;BME280;60995;52.154;4.498;2023-03-25T12:51:05;100204.16;;;14.74;55.03
72414;BME280;60995;52.154;4.498;2023-03-25T12:56:21;100212.59;;;15.11;53.69
72414;BME280;60995;52.154;4.498;2023-03-25T12:59:13;100203.75;;;14.54;54.61
72414;BME280;60995;52.154;4.498;2023-03-25T13:09:20;100218.97;;;15.03;53.58
72414;BME280;60995;52.154;4.498;2023-03-25T13:11:44;100217.19;;;14.55;54.40
72414;BME280;60995;52.154;4.498;2023-03-25T13:14:16;100243.38;;;13.85;59.40
72414;BME280;60995;52.154;4.498;2023-03-25T13:16:41;100269.31;;;12.56;67.26
72414;BME280;60995;52.154;4.498;2023-03-25T13:19:13;100248.34;;;12.40;69.42
72414;BME280;60995;52.154;4.498;2023-03-25T13:21:46;100242.72;;;12.33;69.30
72414;BME280;60995;52.154;4.498;2023-03-25T13:24:18;100254.53;;;12.24;69.85
72414;BME280;60995;52.154;4.498;2023-03-25T13:26:39;100258.84;;;12.00;70.73
72414;BME280;60995;52.154;4.498;2023-03-25T13:29:01;100269.44;;;11.59;72.41
72414;BME280;60995;52.154;4.498;2023-03-25T13:31:39;100263.84;;;11.42;74.52
72414;BME280;60995;52.154;4.498;2023-03-25T13:45:19;100248.69;;;12.11;73.68
72414;BME280;60995;52.154;4.498;2023-03-25T13:47:40;100218.69;;;12.29;73.98
72414;BME280;60995;52.154;4.498;2023-03-25T13:50:07;100239.31;;;12.39;73.74
72414;BME280;60995;52.154;4.498;2023-03-25T13:52:38;100246.28;;;12.42;71.58
72414;BME280;60995;52.154;4.498;2023-03-25T13:55:19;100249.97;;;12.76;70.10
72414;BME280;60995;52.154;4.498;2023-03-25T14:06:00;100237.25;;;13.26;65.19
72414;BME280;60995;52.154;4.498;2023-03-25T14:12:03;100271.50;;;13.20;64.13
72414;BME280;60995;52.154;4.498;2023-03-25T14:14:27;100261.50;;;13.37;64.03
72414;BME280;60995;52.154;4.498;2023-03-25T14:17:01;100241.91;;;13.42;62.72